M I D A S
Marine Information and Data Acquisition System
Tripno 1078 of the Zeeleeuw from 2006-04-28 07:14:02 to 2006-04-28 11:53:19
Back to CruiseResearch ActivitiesStationsMapUnderway DataData graphs

EquipmentUnitsComment
TimeDGPSUTC
LatitudeDGPSDM.mWGS84
LongitudeDGPSDM.mWGS84
TemperatureSBE03/SBE38deg celciusITS90
ConductivitySBE21S/mITS90
SalinitySBE21 Practical Salinity Units
ChlorophylAChelsea fluorimeterg/lCalibrated in Aceton
Missing or incorrect values are displayed as -999
Sea surface data collected by the RV Zeeleeuw from 2006-04-28 07:14:48 to 2006-04-28 12:05:21
Time Latitude Longitude Temperature Conductivity Salinity ChlorophylA
2006-04-28 07:15:53 51°13.622 2°56.03 11.8549 3.263443 27.612151 13.107024
2006-04-28 07:16:53 51°13.644 2°55.926 11.7186 3.307143 28.254486 13.781212
2006-04-28 07:17:53 51°13.674 2°55.835 11.6891 3.280399 28.112084 12.095742
2006-04-28 07:18:52 51°13.709 2°55.752 11.6629 3.258183 27.91865 12.76993
2006-04-28 07:19:53 51°13.72 2°55.755 11.9306 3.210911 27.480267 12.837349
2006-04-28 07:20:53 51°13.71 2°55.741 11.9279 2.92777 24.634507 13.680084
2006-04-28 07:21:53 51°13.736 2°55.731 11.9243 2.988912 25.234669 13.241862
2006-04-28 07:22:53 51°13.841 2°55.63 11.9662 3.060797 25.924239 15.129589
2006-04-28 07:23:52 51°13.985 2°55.519 11.6669 3.057113 25.913289 14.725076
2006-04-28 07:24:52 51°14.129 2°55.417 11.572 3.296511 28.355735 13.140734
2006-04-28 07:25:53 51°14.269 2°55.239 11.505 3.299775 28.436448 13.848631
2006-04-28 07:26:52 51°14.374 2°54.995 11.3687 3.319361 28.669232 14.152016
2006-04-28 07:27:52 51°14.412 2°54.661 11.0786 3.414666 29.745411 19.680358
2006-04-28 07:28:52 51°14.378 2°54.317 10.9691 3.488708 30.665563 19.275845
2006-04-28 07:29:52 51°14.263 2°54.003 10.9633 3.497135 30.801196 17.961178
2006-04-28 07:30:51 51°14.163 2°53.677 10.9854 3.517463 31.007411 16.848768
2006-04-28 07:31:52 51°14.059 2°53.334 10.9836 3.520518 31.037306 15.871195
2006-04-28 07:32:52 51°13.951 2°52.993 11.0162 3.545376 31.267155 16.208289
2006-04-28 07:33:52 51°13.833 2°52.653 11.0189 3.563493 31.424875 16.073452
2006-04-28 07:34:51 51°13.69 2°52.345 11.0681 3.580663 31.579416 14.927332
2006-04-28 07:35:49 51°13.573 2°52.016 11.1094 3.61258 31.848157 14.320563
2006-04-28 07:36:52 51°13.451 2°51.651 11.1241 3.626591 31.960551 14.48911
2006-04-28 07:37:52 51°13.339 2°51.298 11.1471 3.631436 31.997638 13.882341
2006-04-28 07:38:52 51°13.22 2°50.951 11.1291 3.642392 32.091091 13.309281
2006-04-28 07:39:52 51°13.092 2°50.613 11.1347 3.637546 32.054721 13.208153
2006-04-28 07:40:52 51°12.974 2°50.266 11.1421 3.641023 32.083922 12.972187
2006-04-28 07:41:52 51°12.848 2°49.93 11.13 3.633122 32.003759 12.871059
2006-04-28 07:42:52 51°12.724 2°49.592 11.1274 3.631331 31.993144 13.612665
2006-04-28 07:43:52 51°12.606 2°49.25 11.1454 3.639127 32.068815 14.050888
2006-04-28 07:44:52 51°12.486 2°48.9 11.1507 3.64334 32.097601 14.421691
2006-04-28 07:45:52 51°12.365 2°48.546 11.1392 3.634175 32.009229 14.017178
2006-04-28 07:46:51 51°12.245 2°48.197 11.1467 3.61574 31.832917 13.747503
2006-04-28 07:47:52 51°12.12 2°47.843 11.1677 3.634597 32.009893 15.230717
2006-04-28 07:48:52 51°12.001 2°47.495 11.1883 3.681477 32.450408 13.747503
2006-04-28 07:49:52 51°11.889 2°47.135 11.2087 3.694961 32.562254 13.477828
2006-04-28 07:50:52 51°11.778 2°46.771 11.2227 3.699702 32.597473 13.545247
2006-04-28 07:51:52 51°11.667 2°46.412 11.234 3.710659 32.691495 13.612665
2006-04-28 07:52:52 51°11.555 2°46.05 11.244 3.718455 32.759454 13.781212
2006-04-28 07:53:52 51°11.45 2°45.691 11.2511 3.726357 32.829853 13.814922
2006-04-28 07:54:52 51°11.367 2°45.317 11.2516 3.722669 32.788746 13.680084
2006-04-28 07:55:52 51°11.289 2°44.944 11.256 3.740896 32.963929 13.241862
2006-04-28 07:56:51 51°11.205 2°44.57 11.2536 3.735945 32.913231 12.972187
2006-04-28 07:57:52 51°11.14 2°44.178 11.2461 3.744479 32.998358 12.837349
2006-04-28 07:58:52 51°11.072 2°43.791 11.2487 3.761653 33.172626 12.635093
2006-04-28 07:59:52 51°11.007 2°43.403 11.2427 3.762706 33.184404 12.432836
2006-04-28 08:00:52 51°10.943 2°43.016 11.2455 3.768923 33.247611 12.331708
2006-04-28 08:01:52 51°10.876 2°42.632 11.2526 3.783463 33.385446 12.331708
2006-04-28 08:02:52 51°10.808 2°42.248 11.2464 3.78125 33.362981 12.264289
2006-04-28 08:03:52 51°10.745 2°41.866 11.2447 3.810437 33.654331 12.196871
2006-04-28 08:04:52 51°10.684 2°41.484 11.2395 3.827402 33.819869 12.163161
2006-04-28 08:05:52 51°10.623 2°41.105 11.2313 3.828561 33.839318 12.196871
2006-04-28 08:06:52 51°10.56 2°40.728 11.2191 3.836464 33.92743 12.23058
2006-04-28 08:07:52 51°10.496 2°40.354 11.204 3.841416 33.986527 12.365418
2006-04-28 08:08:52 51°10.437 2°39.973 11.194 3.836675 33.950041 12.500255
2006-04-28 08:09:51 51°10.378 2°39.603 11.1682 3.857644 34.170239 12.466546
2006-04-28 08:10:52 51°10.318 2°39.218 11.1266 3.859647 34.21295 12.264289
2006-04-28 08:11:52 51°10.255 2°38.84 11.095 3.861333 34.268926 12.23058
2006-04-28 08:12:52 51°10.194 2°38.461 11.0628 3.868499 34.370383 12.028324
2006-04-28 08:13:51 51°10.135 2°38.088 11.0355 3.873347 34.448306 12.095742
2006-04-28 08:14:51 51°10.074 2°37.706 11.0162 3.876825 34.505279 11.927195
2006-04-28 08:15:52 51°10.011 2°37.316 11.0027 3.878827 34.541669 11.623811
2006-04-28 08:16:51 51°9.956 2°36.941 11.0152 3.885993 34.616611 13.275571
2006-04-28 08:17:52 51°9.95 2°36.548 10.9951 3.887573 34.626292 14.118306
2006-04-28 08:18:52 51°9.969 2°36.169 10.953 3.889365 34.665951 13.3767
2006-04-28 08:19:52 51°10.039 2°35.822 10.8997 3.890736 34.728697 11.11817
2006-04-28 08:20:52 51°10.208 2°35.635 10.7632 3.878302 34.66764 10.679947
2006-04-28 08:21:50 51°10.398 2°35.65 10.7091 3.876512 34.7614 10.646238
2006-04-28 08:22:52 51°10.571 2°35.81 10.6764 3.869452 34.743346 10.410272
2006-04-28 08:23:51 51°10.738 2°35.96 10.6815 3.873773 34.801898 10.309144
2006-04-28 08:24:52 51°10.908 2°36.123 10.632 3.873562 34.810492 10.54511
2006-04-28 08:25:52 51°11.073 2°36.288 10.5624 3.864395 34.772108 10.208016
2006-04-28 08:26:52 51°11.241 2°36.444 10.548 3.866925 34.856576 10.005759
2006-04-28 08:27:52 51°11.407 2°36.605 10.6014 3.855755 34.734347 9.904631
2006-04-28 08:28:52 51°11.57 2°36.768 10.6419 3.854596 34.674547 9.97205
2006-04-28 08:29:52 51°11.736 2°36.93 10.6625 3.841634 34.511907 10.106888
2006-04-28 08:30:52 51°11.906 2°37.077 10.6719 3.83057 34.39053 10.275435
2006-04-28 08:31:52 51°12.077 2°37.224 10.6826 3.828778 34.362031 10.410272
2006-04-28 08:32:52 51°12.246 2°37.376 10.7029 3.824563 34.30329 10.5114
2006-04-28 08:33:51 51°12.413 2°37.521 10.7279 3.819084 34.23048 10.54511
2006-04-28 08:34:51 51°12.584 2°37.669 10.7399 3.815817 34.176104 10.747366
2006-04-28 08:35:52 51°12.757 2°37.818 10.7448 3.814658 34.155547 10.781076
2006-04-28 08:36:52 51°12.928 2°37.965 10.7493 3.806123 34.066661 10.882204
2006-04-28 08:37:52 51°13.101 2°38.11 10.758 3.801381 34.016392 11.151879
2006-04-28 08:38:52 51°13.262 2°38.287 10.7721 3.798326 33.974014 11.724939
2006-04-28 08:39:52 51°13.342 2°38.569 10.774 3.801276 33.991506 12.196871
2006-04-28 08:40:52 51°13.47 2°38.788 10.775 3.800011 33.987094 12.23058
2006-04-28 08:41:52 51°13.657 2°38.887 10.7805 3.797166 33.952795 12.196871
2006-04-28 08:42:52 51°13.859 2°38.871 10.7627 3.793795 33.916977 12.062033
2006-04-28 08:43:52 51°14.057 2°38.779 10.7458 3.791898 33.91368 11.826067
2006-04-28 08:44:52 51°14.222 2°38.568 10.7341 3.796008 33.974728 11.522683
2006-04-28 08:45:51 51°14.354 2°38.301 10.6978 3.805702 34.075154 11.08446
2006-04-28 08:46:52 51°14.332 2°37.928 10.6163 3.810655 34.175533 11.994614
2006-04-28 08:47:52 51°14.222 2°37.575 10.5751 3.803069 34.172531 11.927195
2006-04-28 08:48:52 51°14.075 2°37.25 10.6159 3.794535 34.109614 11.893486
2006-04-28 08:49:52 51°13.934 2°36.92 10.6438 3.805176 34.172568 11.792358
2006-04-28 08:50:52 51°13.796 2°36.588 10.6573 3.81782 34.27803 12.331708
2006-04-28 08:51:52 51°13.659 2°36.255 10.6839 3.82214 34.304673 12.264289
2006-04-28 08:52:52 51°13.522 2°35.927 10.7035 3.82214 34.279062 11.421554
2006-04-28 08:53:52 51°13.383 2°35.6 10.7052 3.815396 34.199644 10.882204
2006-04-28 08:54:52 51°13.243 2°35.273 10.7059 3.818873 34.230628 10.679947
2006-04-28 08:55:52 51°13.102 2°34.949 10.7081 3.831728 34.359846 10.477691
2006-04-28 08:56:52 51°12.973 2°34.61 10.7102 3.830675 34.348559 10.309144
2006-04-28 08:57:52 51°12.851 2°34.266 10.7057 3.841107 34.452098 10.275435
2006-04-28 08:58:52 51°12.739 2°33.915 10.6812 3.844795 34.49428 10.106888
2006-04-28 08:59:52 51°12.632 2°33.562 10.6611 3.840685 34.475123 10.039469
2006-04-28 09:00:52 51°12.527 2°33.212 10.6341 3.84195 34.510521 9.938341
2006-04-28 09:01:52 51°12.421 2°32.867 10.6147 3.856281 34.678484 9.870922
2006-04-28 09:02:52 51°12.315 2°32.522 10.6102 3.85017 34.631681 9.803503
2006-04-28 09:03:52 51°12.204 2°32.178 10.5978 3.853437 34.671315 9.736084
2006-04-28 09:04:52 51°12.098 2°31.831 10.5924 3.852383 34.67143 9.702375
2006-04-28 09:05:52 51°12.012 2°31.468 10.5979 3.857546 34.72708 9.736084
2006-04-28 09:06:52 51°11.921 2°31.107 10.5309 3.855334 34.717867 10.612529
2006-04-28 09:07:52 51°11.831 2°30.739 10.5224 3.85133 34.732008 10.275435
2006-04-28 09:08:52 51°11.739 2°30.372 10.3747 3.846062 34.699713 10.005759
2006-04-28 09:09:52 51°11.652 2°30.004 10.3513 3.839109 34.747221 9.904631
2006-04-28 09:10:52 51°11.574 2°29.628 10.2943 3.8409 34.791532 9.769794
2006-04-28 09:11:52 51°11.496 2°29.251 10.241 3.837002 34.804686 9.736084
2006-04-28 09:12:52 51°11.417 2°28.875 10.1804 3.833736 34.819646 9.702375
2006-04-28 09:13:52 51°11.34 2°28.499 10.1012 3.829522 34.845248 9.736084
2006-04-28 09:14:52 51°11.265 2°28.12 10.0297 3.82436 34.860555 9.702375
2006-04-28 09:15:51 51°11.219 2°27.744 9.9492 3.814772 34.834798 9.668665
2006-04-28 09:16:52 51°11.209 2°27.352 9.9367 3.81235 34.887552 9.634956
2006-04-28 09:17:51 51°11.199 2°26.978 9.9583 3.814773 34.902083 9.500118
2006-04-28 09:18:51 51°11.194 2°26.6 9.9327 3.81667 34.910452 9.466409
2006-04-28 09:19:52 51°11.241 2°26.243 9.8182 3.814668 34.930042 9.39899
2006-04-28 09:20:52 51°11.33 2°25.924 9.758 3.805502 34.94807 9.365281
2006-04-28 09:21:52 51°11.466 2°25.66 9.7341 3.802447 34.945964 9.365281
2006-04-28 09:22:52 51°11.661 2°25.587 9.6104 3.798444 34.948359 9.365281
2006-04-28 09:23:52 51°11.857 2°25.656 9.5067 3.784326 34.940319 9.634956
2006-04-28 09:24:52 51°12.034 2°25.795 9.4798 3.776952 34.939829 9.533828
2006-04-28 09:25:52 51°12.206 2°25.951 9.4949 3.775477 34.936553 9.500118
2006-04-28 09:26:52 51°12.368 2°26.123 9.5009 3.775898 34.932943 9.331571
2006-04-28 09:27:52 51°12.533 2°26.291 9.4968 3.775055 34.926637 9.230443
2006-04-28 09:28:52 51°12.701 2°26.455 9.4933 3.777162 34.948368 9.264153
2006-04-28 09:29:52 51°12.867 2°26.621 9.4921 3.768523 34.868019 9.196734
2006-04-28 09:30:52 51°13.027 2°26.8 9.5012 3.769471 34.874619 9.196734
2006-04-28 09:31:52 51°13.182 2°26.984 9.5907 3.771999 34.885598 9.163024
2006-04-28 09:32:52 51°13.335 2°27.171 9.6466 3.775686 34.828478 9.095606
2006-04-28 09:33:52 51°13.48 2°27.375 9.7204 3.784536 34.87358 9.061896
2006-04-28 09:34:52 51°13.433 2°27.613 9.8328 3.792121 34.847275 8.994477
2006-04-28 09:35:52 51°13.236 2°27.468 9.6569 3.794018 34.874581 9.095606
2006-04-28 09:36:52 51°13.184 2°27.243 9.6094 3.787592 34.916836 9.196734
2006-04-28 09:37:51 51°13.182 2°27.127 9.6265 3.784853 34.917189 9.163024
2006-04-28 09:38:52 51°13.169 2°27.073 9.6192 3.785379 34.913099 9.129315
2006-04-28 09:39:52 51°13.152 2°27.029 9.6138 3.78422 34.909896 9.163024
2006-04-28 09:40:52 51°13.134 2°26.99 9.6196 3.78422 34.908312 9.196734
2006-04-28 09:41:52 51°13.117 2°26.955 9.63 3.784431 34.906518 9.163024
2006-04-28 09:42:52 51°13.096 2°26.921 9.6388 3.784958 34.900849 9.129315
2006-04-28 09:43:52 51°13.077 2°26.89 9.6447 3.785695 34.900514 9.163024
2006-04-28 09:44:51 51°13.057 2°26.86 9.6513 3.785906 34.897931 9.129315
2006-04-28 09:45:52 51°13.036 2°26.831 9.6516 3.786327 34.899097 9.163024
2006-04-28 09:46:52 51°13.014 2°26.804 9.6573 3.786749 34.899471 9.163024
2006-04-28 09:47:51 51°12.992 2°26.777 9.6592 3.787065 34.897972 9.129315
2006-04-28 09:48:51 51°12.97 2°26.75 9.6728 3.787381 34.896474 9.095606
2006-04-28 09:49:52 51°12.948 2°26.723 9.6817 3.788224 34.896433 9.129315
2006-04-28 09:50:52 51°12.926 2°26.696 9.6887 3.788961 34.895311 9.095606
2006-04-28 09:51:52 51°12.904 2°26.67 9.6954 3.789488 34.894397 9.095606
2006-04-28 09:52:52 51°12.882 2°26.645 9.6941 3.790015 34.895064 9.095606
2006-04-28 09:53:51 51°12.86 2°26.621 9.6911 3.789909 34.894772 9.095606
2006-04-28 09:54:51 51°12.839 2°26.598 9.6907 3.79012 34.894565 9.061896
2006-04-28 09:55:52 51°12.816 2°26.574 9.6846 3.789277 34.895395 9.061896
2006-04-28 09:56:52 51°12.794 2°26.551 9.6842 3.789593 34.898639 9.095606
2006-04-28 09:57:52 51°12.772 2°26.528 9.6783 3.789277 34.897765 9.061896
2006-04-28 09:58:52 51°12.752 2°26.505 9.6816 3.788645 34.896808 9.028187
2006-04-28 09:59:52 51°12.733 2°26.48 9.6827 3.789277 34.897765 9.028187
2006-04-28 10:00:52 51°12.768 2°26.393 9.6819 3.789383 34.898847 9.061896
2006-04-28 10:01:52 51°12.907 2°26.437 9.6921 3.789066 34.891651 8.893349
2006-04-28 10:02:52 51°13.065 2°26.617 9.7661 3.790014 34.873748 8.82593
2006-04-28 10:03:52 51°13.221 2°26.813 9.7426 3.792859 34.864281 8.85964
2006-04-28 10:04:52 51°13.376 2°27.015 9.7138 3.790014 34.863494 8.960768
2006-04-28 10:05:52 51°13.533 2°27.213 9.7953 3.787064 34.842702 9.163024
2006-04-28 10:06:52 51°13.688 2°27.412 9.8893 3.791594 34.779036 8.893349
2006-04-28 10:07:52 51°13.843 2°27.611 9.9597 3.795386 34.753584 8.893349
2006-04-28 10:08:52 51°13.999 2°27.81 10.0335 3.798756 34.690465 8.927059
2006-04-28 10:09:53 51°14.158 2°28.011 10.0716 3.798335 34.658195 9.061896
2006-04-28 10:10:52 51°14.311 2°28.209 10.1066 3.797386 34.602813 9.163024
2006-04-28 10:11:52 51°14.469 2°28.414 10.1261 3.796964 34.568373 9.297862
2006-04-28 10:12:52 51°14.622 2°28.614 10.1121 3.795699 34.545507 9.365281
2006-04-28 10:13:52 51°14.78 2°28.813 10.115 3.792328 34.51902 9.4327
2006-04-28 10:14:51 51°14.936 2°29.014 10.1306 3.790431 34.494385 9.500118
2006-04-28 10:15:52 51°15.093 2°29.229 10.0911 3.790747 34.491425 9.601247
2006-04-28 10:16:52 51°15.25 2°29.441 9.9962 3.787271 34.519408 9.702375
2006-04-28 10:17:52 51°15.406 2°29.657 9.9905 3.779264 34.498322 9.769794
2006-04-28 10:18:52 51°15.564 2°29.875 9.9745 3.775997 34.474377 9.870922
2006-04-28 10:19:52 51°15.724 2°30.09 9.9826 3.773153 34.455486 9.904631
2006-04-28 10:20:52 51°15.882 2°30.308 9.9958 3.773363 34.442944 9.904631
2006-04-28 10:21:52 51°16.04 2°30.524 10.0028 3.772415 34.421718 9.904631
2006-04-28 10:22:52 51°16.199 2°30.74 10.0063 3.769465 34.391725 9.870922
2006-04-28 10:23:52 51°16.358 2°30.952 10.0379 3.764618 34.330144 10.747366
2006-04-28 10:24:52 51°16.517 2°31.166 10.0461 3.759244 34.235661 10.039469
2006-04-28 10:25:53 51°16.676 2°31.383 10.0919 3.751868 34.141743 9.938341
2006-04-28 10:26:52 51°16.828 2°31.597 10.0918 3.737012 33.970692 9.938341
2006-04-28 10:27:52 51°16.983 2°31.814 10.0778 3.726265 33.861922 10.005759
2006-04-28 10:28:53 51°17.141 2°32.042 10.0597 3.720155 33.807651 10.005759
2006-04-28 10:29:52 51°17.294 2°32.268 10.0317 3.734273 33.975616 10.039469
2006-04-28 10:30:53 51°17.453 2°32.501 10.0278 3.730059 33.95191 10.140597
2006-04-28 10:31:52 51°17.606 2°32.731 10.0095 3.726056 33.928043 10.140597
2006-04-28 10:32:52 51°17.765 2°32.965 9.9932 3.718681 33.871484 10.241725
2006-04-28 10:33:52 51°17.924 2°33.201 9.9928 3.721842 33.911903 10.208016
2006-04-28 10:34:52 51°18.082 2°33.441 9.972 3.725424 33.943684 10.275435
2006-04-28 10:35:52 51°18.241 2°33.681 9.9588 3.723001 33.936596 10.342853
2006-04-28 10:36:52 51°18.398 2°33.925 9.9163 3.718892 33.919239 10.443982
2006-04-28 10:37:52 51°18.546 2°34.184 9.8578 3.717523 33.943428 10.443982
2006-04-28 10:38:51 51°18.692 2°34.438 9.826 3.712361 33.939007 10.342853
2006-04-28 10:39:52 51°18.842 2°34.703 9.8016 3.708463 33.933705 10.309144
2006-04-28 10:40:52 51°18.986 2°34.966 9.7727 3.704249 33.915233 10.309144
2006-04-28 10:41:53 51°19.135 2°35.231 9.7384 3.699719 33.891226 10.275435
2006-04-28 10:42:52 51°19.28 2°35.488 9.7064 3.694663 33.872533 10.342853
2006-04-28 10:43:51 51°19.424 2°35.746 9.6828 3.691608 33.871966 10.342853
2006-04-28 10:44:52 51°19.572 2°36.009 9.6654 3.692872 33.912493 10.376563
2006-04-28 10:45:52 51°19.716 2°36.267 9.6996 3.69203 33.90925 10.342853
2006-04-28 10:46:52 51°19.861 2°36.519 9.7329 3.690133 33.852308 10.309144
2006-04-28 10:47:52 51°20.011 2°36.764 9.726 3.685813 33.784519 10.342853
2006-04-28 10:48:52 51°20.16 2°37.009 9.733 3.684022 33.771588 10.342853
2006-04-28 10:49:52 51°20.283 2°37.284 9.7205 3.681599 33.74839 10.376563
2006-04-28 10:50:52 51°20.373 2°37.598 9.7173 3.678017 33.730903 10.410272
2006-04-28 10:51:52 51°20.442 2°37.927 9.7005 3.676542 33.717374 10.443982
2006-04-28 10:52:52 51°20.478 2°38.275 9.6929 3.675068 33.716807 10.477691
2006-04-28 10:53:52 51°20.491 2°38.632 9.6759 3.674646 33.71403 10.5114
2006-04-28 10:54:52 51°20.49 2°38.995 9.6467 3.672329 33.714013 10.612529
2006-04-28 10:55:52 51°20.488 2°39.358 9.6335 3.669485 33.712434 10.747366
2006-04-28 10:56:52 51°20.488 2°39.723 9.6291 3.665481 33.673795 10.747366
2006-04-28 10:57:52 51°20.49 2°40.088 9.6428 3.662848 33.656024 10.747366
2006-04-28 10:58:52 51°20.493 2°40.452 9.6596 3.661373 33.615793 10.781076
2006-04-28 10:59:52 51°20.499 2°40.818 9.6712 3.657159 33.568181 10.814785
2006-04-28 11:00:52 51°20.507 2°41.186 9.7071 3.653787 33.5254 10.915913
2006-04-28 11:01:52 51°20.515 2°41.56 9.7182 3.649678 33.44484 10.983332
2006-04-28 11:02:52 51°20.51 2°41.939 9.6901 3.645359 33.40685 11.11817
2006-04-28 11:03:52 51°20.508 2°42.319 9.6909 3.639881 33.370628 11.151879
2006-04-28 11:04:52 51°20.505 2°42.699 9.6862 3.638196 33.351173 11.185589
2006-04-28 11:05:52 51°20.505 2°43.077 9.6614 3.63651 33.343795 11.253007
2006-04-28 11:06:52 51°20.506 2°43.454 9.6613 3.635351 33.342542 11.320426
2006-04-28 11:07:52 51°20.508 2°43.825 9.7495 3.63335 33.311561 11.286717
2006-04-28 11:08:52 51°20.511 2°44.198 9.7507 3.630505 33.217146 11.320426
2006-04-28 11:09:52 51°20.515 2°44.573 9.7687 3.626502 33.179408 11.522683
2006-04-28 11:10:52 51°20.511 2°44.952 9.7634 3.6245 33.141823 11.69123
2006-04-28 11:11:52 51°20.506 2°45.327 9.7785 3.619865 33.092448 11.556392
2006-04-28 11:12:52 51°20.504 2°45.704 9.8518 3.617757 33.042688 11.455264
2006-04-28 11:13:52 51°20.504 2°46.084 9.9239 3.618705 33.006918 11.522683
2006-04-28 11:14:52 51°20.489 2°46.463 10.1897 3.59026 32.556664 11.623811
2006-04-28 11:15:52 51°20.469 2°46.844 10.1877 3.576143 32.275741 11.859777
2006-04-28 11:16:52 51°20.449 2°47.226 10.1325 3.586888 32.40953 11.893486
2006-04-28 11:17:52 51°20.424 2°47.607 10.1356 3.599529 32.571383 11.893486
2006-04-28 11:18:52 51°20.345 2°47.96 10.0309 3.60901 32.677719 11.927195
2006-04-28 11:19:52 51°20.215 2°48.26 10.1624 3.607747 32.735929 12.196871
2006-04-28 11:20:52 51°20.077 2°48.54 10.3169 3.558552 32.072222 12.500255
2006-04-28 11:21:52 51°19.94 2°48.821 10.349 3.542961 31.828357 12.76993
2006-04-28 11:22:52 51°19.798 2°49.102 10.3033 3.545489 31.864896 12.871059
2006-04-28 11:23:52 51°19.66 2°49.39 10.3713 3.544646 31.845176 12.837349
2006-04-28 11:24:52 51°19.504 2°49.653 10.3495 3.540537 31.743631 13.073315
2006-04-28 11:25:52 51°19.328 2°49.878 10.411 3.53306 31.739432 13.444118
2006-04-28 11:26:51 51°19.15 2°50.092 10.3552 3.524316 31.549331 13.511537
2006-04-28 11:27:52 51°18.961 2°50.295 10.3618 3.52042 31.593023 13.848631
2006-04-28 11:28:52 51°18.782 2°50.507 10.4935 3.511255 31.438991 13.949759
2006-04-28 11:29:52 51°18.605 2°50.717 10.5338 3.497456 31.212808 14.792494
2006-04-28 11:30:52 51°18.426 2°50.928 10.4848 3.480604 31.035655 15.230717
2006-04-28 11:31:52 51°18.244 2°51.145 10.4695 3.470388 30.974854 15.230717
2006-04-28 11:32:52 51°18.062 2°51.357 10.5014 3.472495 30.98888 15.197007
2006-04-28 11:33:51 51°17.892 2°51.581 10.5043 3.477866 31.019496 15.466683
2006-04-28 11:34:52 51°17.707 2°51.789 10.5965 3.473126 30.985566 16.74764
2006-04-28 11:35:52 51°17.522 2°51.978 10.732 3.469228 30.829372 17.758922
2006-04-28 11:36:52 51°17.333 2°52.153 10.8109 3.470912 30.757513 18.466819
2006-04-28 11:37:52 51°17.141 2°52.314 10.7996 3.49145 30.91962 18.97246
2006-04-28 11:38:52 51°16.951 2°52.484 10.7943 3.485973 30.874568 18.500529
2006-04-28 11:39:51 51°16.764 2°52.643 10.7988 3.494399 30.945903 17.3207
2006-04-28 11:40:52 51°16.569 2°52.815 10.7826 3.489975 30.905803 16.916187
2006-04-28 11:41:52 51°16.377 2°52.98 10.7795 3.478495 30.818598 17.253281
2006-04-28 11:42:52 51°16.18 2°53.136 10.8301 3.480075 30.807843 17.961178
2006-04-28 11:43:52 51°15.985 2°53.298 10.8923 3.493661 30.891392 17.354409
2006-04-28 11:44:52 51°15.792 2°53.46 10.9162 3.503456 30.963895 16.815059
2006-04-28 11:45:52 51°15.603 2°53.626 10.9015 3.49524 30.857748 17.28699
2006-04-28 11:46:52 51°15.414 2°53.788 10.8946 3.485339 30.750709 18.331982
2006-04-28 11:47:52 51°15.227 2°53.96 10.9019 3.455639 30.483319 18.702785
2006-04-28 11:48:52 51°15.044 2°54.142 10.8671 3.44774 30.421278 18.938751
2006-04-28 11:49:52 51°14.86 2°54.324 10.8988 3.461221 30.549267 19.141007
2006-04-28 11:50:52 51°14.698 2°54.546 10.9882 3.47586 30.667932 19.714067
2006-04-28 11:51:52 51°14.542 2°54.781 11.0063 3.499662 30.805165 18.905042
2006-04-28 11:52:52 51°14.391 2°55.034 10.9463 3.503455 30.871699 19.073589
2006-04-28 11:53:52 51°14.265 2°55.258 11.1032 3.493554 30.760847 19.646648
2006-04-28 11:54:52 51°14.16 2°55.385 11.4138 3.487443 30.589584 32.658477
2006-04-28 11:55:52 51°14.06 2°55.457 11.5193 3.487127 30.579234 26.422238
2006-04-28 11:56:52 51°13.961 2°55.53 11.6177 3.488286 30.588525 25.984016
2006-04-28 11:57:53 51°13.858 2°55.606 11.7245 3.489023 30.594376 25.613212
2006-04-28 11:58:52 51°13.765 2°55.692 11.8174 3.489444 30.595169 25.444665
2006-04-28 11:59:52 51°13.698 2°55.8 11.9335 3.48976 30.594275 25.276118
2006-04-28 12:00:53 51°13.65 2°55.911 12.0709 3.490181 30.593746 25.141281
2006-04-28 12:01:52 51°13.619 2°56.002 12.1559 3.490708 30.592258 25.006443
2006-04-28 12:02:56 51°13.609 2°56.069 12.3449 3.491656 30.590904 24.972734
2006-04-28 12:03:56 51°13.605 2°56.093 12.4798 3.492814 30.591599 24.905315
2006-04-28 12:04:56 51°13.602 2°56.097 12.5731 3.494289 30.592724 24.905315